createdAt,value
2018-07-03T00:00:25.643Z,17.60
2018-07-03T00:02:53.662Z,17.50
2018-07-03T00:05:21.561Z,17.50
2018-07-03T00:07:53.493Z,17.50
2018-07-03T00:10:21.459Z,17.40
2018-07-03T00:12:49.383Z,17.40
2018-07-03T00:15:17.248Z,17.30
2018-07-03T00:17:45.202Z,17.20
2018-07-03T00:20:13.093Z,17.20
2018-07-03T00:22:41.110Z,17.10
2018-07-03T00:25:09.072Z,17.00
2018-07-03T00:27:37.018Z,17.00
2018-07-03T00:30:05.037Z,17.00
2018-07-03T00:32:32.979Z,16.90
2018-07-03T00:35:00.913Z,16.90
2018-07-03T00:37:28.805Z,16.80
2018-07-03T00:40:03.487Z,16.80
2018-07-03T00:42:31.381Z,16.70
2018-07-03T00:44:59.248Z,16.70
2018-07-03T00:47:27.122Z,16.70
2018-07-03T00:49:55.058Z,16.70
2018-07-03T00:52:22.941Z,16.70
2018-07-03T00:54:50.870Z,16.80
2018-07-03T00:57:18.837Z,16.80
2018-07-03T00:59:57.977Z,16.70
2018-07-03T01:02:25.965Z,16.70
2018-07-03T01:04:53.849Z,16.60
2018-07-03T01:07:21.837Z,16.50
2018-07-03T01:09:49.746Z,16.40
2018-07-03T01:12:17.715Z,16.40
2018-07-03T01:14:45.672Z,16.30
2018-07-03T01:17:13.633Z,16.30
2018-07-03T01:19:41.478Z,16.20
2018-07-03T01:22:09.433Z,16.10
2018-07-03T01:24:37.732Z,16.10
2018-07-03T01:27:05.778Z,16.00
2018-07-03T01:29:33.730Z,16.00
2018-07-03T01:32:01.633Z,16.00
2018-07-03T01:34:29.610Z,16.00
2018-07-03T01:36:57.510Z,15.90
2018-07-03T01:42:00.051Z,15.70
2018-07-03T01:44:27.941Z,15.70
2018-07-03T01:46:55.879Z,15.80
2018-07-03T01:49:23.750Z,15.80
2018-07-03T01:51:51.646Z,15.80
2018-07-03T01:54:19.655Z,15.80
2018-07-03T01:56:47.683Z,15.70
2018-07-03T01:59:15.603Z,15.60
2018-07-03T02:01:43.543Z,15.50
2018-07-03T02:04:11.872Z,15.40
2018-07-03T02:06:39.857Z,15.30
2018-07-03T02:09:10.414Z,15.30
2018-07-03T02:11:38.577Z,15.20
2018-07-03T02:14:06.851Z,15.20
2018-07-03T02:16:34.833Z,15.10
2018-07-03T02:19:02.842Z,15.00
2018-07-03T02:21:30.882Z,15.00
2018-07-03T02:23:59.126Z,14.90
2018-07-03T02:26:27.024Z,14.80
2018-07-03T02:28:54.999Z,14.80
2018-07-03T02:31:23.066Z,14.70
2018-07-03T02:33:51.064Z,14.70
2018-07-03T02:36:19.018Z,14.60
2018-07-03T02:38:46.959Z,14.60
2018-07-03T02:41:14.969Z,14.60
2018-07-03T02:43:42.877Z,14.60
2018-07-03T02:46:10.888Z,14.60
2018-07-03T02:48:38.977Z,14.60
2018-07-03T02:51:07.088Z,14.50
2018-07-03T02:53:35.130Z,14.50
2018-07-03T02:56:03.044Z,14.40
2018-07-03T02:58:30.881Z,14.40
2018-07-03T03:00:58.817Z,14.40
2018-07-03T03:03:26.773Z,14.40
2018-07-03T03:05:54.718Z,14.50
2018-07-03T03:08:24.014Z,14.60
2018-07-03T03:10:52.041Z,14.60
2018-07-03T03:13:19.966Z,14.70
2018-07-03T03:15:47.950Z,14.70
2018-07-03T03:18:15.844Z,14.70
2018-07-03T03:20:43.808Z,14.70
2018-07-03T03:25:39.543Z,14.70
2018-07-03T03:28:07.487Z,14.70
2018-07-03T03:30:35.353Z,14.80
2018-07-03T03:33:03.408Z,14.80
2018-07-03T03:35:31.389Z,14.80
2018-07-03T03:37:59.232Z,14.80
2018-07-03T03:40:27.171Z,14.90
2018-07-03T03:42:55.099Z,14.90
2018-07-03T03:45:23.037Z,14.90
2018-07-03T03:47:50.953Z,14.90
2018-07-03T03:50:18.903Z,14.80
2018-07-03T03:52:46.908Z,14.80
2018-07-03T03:55:14.879Z,14.80
2018-07-03T03:57:42.770Z,14.90
2018-07-03T04:00:11.127Z,14.90
2018-07-03T04:02:39.454Z,14.90
2018-07-03T04:05:07.667Z,14.80
2018-07-03T04:07:35.621Z,14.80
2018-07-03T04:12:31.432Z,15.00
2018-07-03T04:14:59.388Z,15.10
2018-07-03T04:17:27.354Z,15.20
2018-07-03T04:19:55.296Z,15.20
2018-07-03T04:22:23.213Z,15.20
2018-07-03T04:24:51.145Z,15.20
2018-07-03T04:27:19.058Z,15.30
2018-07-03T04:29:47.403Z,15.30
2018-07-03T04:32:15.418Z,15.30
2018-07-03T04:34:43.397Z,15.30
2018-07-03T04:37:11.328Z,15.30
2018-07-03T04:39:39.258Z,15.40
2018-07-03T04:42:07.221Z,15.60
2018-07-03T04:44:35.108Z,15.70
2018-07-03T04:47:03.163Z,15.70
2018-07-03T04:49:31.051Z,15.70
2018-07-03T04:51:59.027Z,15.60
2018-07-03T04:54:27.106Z,15.60
2018-07-03T04:56:55.109Z,15.50
2018-07-03T04:59:23.018Z,15.60
2018-07-03T05:01:51.091Z,15.70
2018-07-03T05:04:19.019Z,15.80
2018-07-03T05:06:47.027Z,15.80
2018-07-03T05:09:14.921Z,15.80
2018-07-03T05:11:42.831Z,15.90
2018-07-03T05:14:10.773Z,16.00
2018-07-03T05:16:38.767Z,16.00
2018-07-03T05:19:07.051Z,16.00
2018-07-03T05:21:35.102Z,16.00
2018-07-03T05:24:03.100Z,16.10
2018-07-03T05:29:05.780Z,16.10
2018-07-03T05:31:40.354Z,16.20
2018-07-03T05:34:08.385Z,16.30
2018-07-03T05:36:37.224Z,16.40
2018-07-03T05:39:07.825Z,16.40
2018-07-03T05:41:35.824Z,16.50
2018-07-03T05:44:03.859Z,16.50
2018-07-03T05:46:31.838Z,16.60
2018-07-03T05:48:59.789Z,16.80
2018-07-03T05:51:27.738Z,16.80
2018-07-03T05:53:55.841Z,16.80
2018-07-03T05:56:23.820Z,16.90
2018-07-03T05:58:51.694Z,17.00
2018-07-03T06:01:19.597Z,17.10
2018-07-03T06:03:47.557Z,17.20
2018-07-03T06:06:15.426Z,17.30
2018-07-03T06:08:43.337Z,17.40
2018-07-03T06:11:11.231Z,17.50
2018-07-03T06:13:39.170Z,17.70
2018-07-03T06:16:07.273Z,17.80
2018-07-03T06:18:35.304Z,17.90
2018-07-03T06:21:03.353Z,18.00
2018-07-03T06:23:31.250Z,18.00
2018-07-03T06:25:59.288Z,18.10
2018-07-03T06:28:27.137Z,18.30
2018-07-03T06:30:55.113Z,18.30
2018-07-03T06:33:23.053Z,18.40
2018-07-03T06:35:51.086Z,18.50
2018-07-03T06:38:18.970Z,18.60
2018-07-03T06:40:46.891Z,18.70
2018-07-03T06:43:14.878Z,18.80
2018-07-03T06:45:42.813Z,18.80
2018-07-03T06:48:10.753Z,19.10
2018-07-03T06:50:38.685Z,19.40
2018-07-03T06:53:06.641Z,19.50
2018-07-03T06:55:34.581Z,19.60
2018-07-03T06:58:02.451Z,19.60
2018-07-03T07:00:30.317Z,19.60
2018-07-03T07:02:58.232Z,19.70
2018-07-03T07:05:26.192Z,19.80
2018-07-03T07:07:54.262Z,19.90
2018-07-03T07:10:22.197Z,20.20
2018-07-03T07:12:50.177Z,20.40
2018-07-03T07:15:18.137Z,20.90
2018-07-03T07:17:46.123Z,22.00
2018-07-03T07:20:14.075Z,23.00
2018-07-03T07:22:42.050Z,23.50
2018-07-03T07:25:09.940Z,23.50
2018-07-03T07:27:37.860Z,23.40
2018-07-03T07:30:06.143Z,23.20
2018-07-03T07:32:34.117Z,23.10
2018-07-03T07:35:02.078Z,23.20
2018-07-03T07:37:29.920Z,23.80
2018-07-03T07:39:57.786Z,25.60
2018-07-03T07:42:25.630Z,27.90
2018-07-03T07:44:53.477Z,30.10
2018-07-03T07:47:21.384Z,32.10
2018-07-03T07:49:49.216Z,34.00
2018-07-03T07:52:17.028Z,35.80
2018-07-03T07:54:44.889Z,36.40
2018-07-03T07:57:12.729Z,36.60
2018-07-03T07:59:40.551Z,36.90
2018-07-03T08:02:08.318Z,37.30
2018-07-03T08:04:36.131Z,38.00
2018-07-03T08:07:04.389Z,38.90
2018-07-03T08:09:32.276Z,39.90
2018-07-03T08:12:00.228Z,40.70
2018-07-03T08:14:28.143Z,41.40
2018-07-03T08:16:56.005Z,42.00
2018-07-03T08:19:23.873Z,41.80
2018-07-03T08:21:51.878Z,41.80
2018-07-03T08:24:19.695Z,41.20
2018-07-03T08:26:47.594Z,41.20
2018-07-03T08:29:15.501Z,41.20
2018-07-03T08:31:43.342Z,41.60
2018-07-03T08:34:11.216Z,41.90
2018-07-03T08:36:39.144Z,42.90
2018-07-03T08:39:09.041Z,42.80
2018-07-03T08:41:36.946Z,42.10
2018-07-03T08:44:04.749Z,41.20
2018-07-03T08:46:32.569Z,41.50
2018-07-03T08:49:00.469Z,42.40
2018-07-03T08:51:28.354Z,42.00
2018-07-03T08:53:56.125Z,42.30
2018-07-03T08:56:24.160Z,41.90
2018-07-03T08:58:52.066Z,42.00
2018-07-03T09:01:19.912Z,41.50
2018-07-03T09:03:47.818Z,40.90
2018-07-03T09:06:15.823Z,41.40
2018-07-03T09:08:43.836Z,41.50
2018-07-03T09:11:11.678Z,42.30
2018-07-03T09:13:39.589Z,42.60
2018-07-03T09:18:35.180Z,43.30
2018-07-03T09:21:03.058Z,44.10
2018-07-03T09:23:30.907Z,44.70
2018-07-03T09:25:58.724Z,44.10
2018-07-03T09:28:26.573Z,43.80
2018-07-03T09:33:22.136Z,44.00
2018-07-03T09:35:49.928Z,43.90
2018-07-03T09:38:17.803Z,43.40
2018-07-03T09:40:45.617Z,43.20
2018-07-03T09:43:13.629Z,42.90
2018-07-03T09:45:41.481Z,42.50
2018-07-03T09:48:16.224Z,42.60
2018-07-03T09:50:44.052Z,43.10
2018-07-03T09:53:12.001Z,43.70
2018-07-03T09:55:39.851Z,43.30
2018-07-03T09:58:07.756Z,42.60
2018-07-03T10:00:41.295Z,42.90
2018-07-03T10:03:09.151Z,43.00
2018-07-03T10:05:36.967Z,43.00
2018-07-03T10:08:04.840Z,42.80
2018-07-03T10:10:32.763Z,42.20
2018-07-03T10:13:00.559Z,41.50
2018-07-03T10:15:28.374Z,41.60
2018-07-03T10:17:56.186Z,42.10
2018-07-03T10:20:23.969Z,42.20
2018-07-03T10:22:51.814Z,42.30
2018-07-03T10:25:19.436Z,41.40
2018-07-03T10:27:47.092Z,41.00
2018-07-03T10:30:14.713Z,41.60
2018-07-03T10:32:42.379Z,42.00
2018-07-03T10:35:10.013Z,42.70
2018-07-03T10:37:37.684Z,43.50
2018-07-03T10:40:05.565Z,43.50
2018-07-03T10:42:33.295Z,43.10
2018-07-03T10:45:00.910Z,42.10
2018-07-03T10:47:28.530Z,41.90
2018-07-03T10:52:23.760Z,42.10
2018-07-03T10:54:51.361Z,42.30
2018-07-03T10:57:19.007Z,41.90
2018-07-03T10:59:46.693Z,41.10
2018-07-03T11:02:14.345Z,41.50
2018-07-03T11:04:41.974Z,40.90
2018-07-03T11:07:09.675Z,40.60
2018-07-03T11:09:37.326Z,40.00
2018-07-03T11:12:05.473Z,39.20
2018-07-03T11:14:33.101Z,38.80
2018-07-03T11:17:00.724Z,39.40
2018-07-03T11:19:28.352Z,39.80
2018-07-03T11:21:56.021Z,40.40
2018-07-03T11:24:23.683Z,40.70
2018-07-03T11:26:51.365Z,40.70
2018-07-03T11:29:18.985Z,40.30
2018-07-03T11:31:46.626Z,40.40
2018-07-03T11:34:14.336Z,40.90
2018-07-03T11:36:42.065Z,41.00
2018-07-03T11:39:09.891Z,39.90
2018-07-03T11:41:37.589Z,39.80
2018-07-03T11:46:32.847Z,40.70
2018-07-03T11:49:00.514Z,40.30
2018-07-03T11:51:28.203Z,40.50
2018-07-03T11:53:55.829Z,40.40
2018-07-03T11:56:23.721Z,40.20
2018-07-03T11:58:51.404Z,40.00
2018-07-03T12:01:19.091Z,39.90
2018-07-03T12:03:46.735Z,39.70
2018-07-03T12:06:14.406Z,39.50
2018-07-03T12:08:42.033Z,39.20
2018-07-03T12:11:09.666Z,39.10
2018-07-03T12:13:37.284Z,39.00
2018-07-03T12:16:05.017Z,38.80
2018-07-03T12:18:38.397Z,38.50
2018-07-03T12:21:06.236Z,38.10
2018-07-03T12:23:33.885Z,37.60
2018-07-03T12:26:01.911Z,37.00
2018-07-03T12:28:29.621Z,36.40
2018-07-03T12:30:57.236Z,36.00
2018-07-03T12:33:24.882Z,35.30
2018-07-03T12:35:52.541Z,35.00
2018-07-03T12:38:20.169Z,34.50
2018-07-03T12:40:47.821Z,33.90
2018-07-03T12:43:15.460Z,33.60
2018-07-03T12:45:43.088Z,33.00
2018-07-03T12:48:10.717Z,32.70
2018-07-03T12:53:12.937Z,33.10
2018-07-03T12:55:40.573Z,33.10
2018-07-03T12:58:08.517Z,32.90
2018-07-03T13:00:36.178Z,33.00
2018-07-03T13:03:03.933Z,32.80
2018-07-03T13:05:31.645Z,32.60
2018-07-03T13:07:59.290Z,32.50
2018-07-03T13:10:26.917Z,32.70
2018-07-03T13:12:54.597Z,32.80
2018-07-03T13:15:22.245Z,32.70
2018-07-03T13:17:49.924Z,32.50
2018-07-03T13:20:17.605Z,32.20
2018-07-03T13:22:45.251Z,31.80
2018-07-03T13:25:13.001Z,31.50
2018-07-03T13:27:40.624Z,31.40
2018-07-03T13:30:09.439Z,31.40
2018-07-03T13:32:37.092Z,31.50
2018-07-03T13:35:06.060Z,31.80
2018-07-03T13:37:33.677Z,31.80
2018-07-03T13:40:01.391Z,31.60
2018-07-03T13:42:29.053Z,31.50
2018-07-03T13:44:56.694Z,31.50
2018-07-03T13:47:24.334Z,31.70
2018-07-03T13:49:51.978Z,31.60
2018-07-03T13:52:19.598Z,31.50
2018-07-03T13:57:14.898Z,31.50
2018-07-03T13:59:42.530Z,31.40
2018-07-03T14:02:10.201Z,31.40
2018-07-03T14:04:37.848Z,31.20
2018-07-03T14:07:05.480Z,31.10
2018-07-03T14:12:00.725Z,30.90
2018-07-03T14:14:28.443Z,30.90
2018-07-03T14:16:56.099Z,31.00
2018-07-03T14:19:23.753Z,31.00
2018-07-03T14:21:51.400Z,31.00
2018-07-03T14:24:19.040Z,31.00
2018-07-03T14:26:46.680Z,31.10
2018-07-03T14:29:14.401Z,31.10
2018-07-03T14:31:42.024Z,31.10
2018-07-03T14:34:09.676Z,31.10
2018-07-03T14:36:37.295Z,31.20
2018-07-03T14:39:09.618Z,31.20
2018-07-03T14:41:37.305Z,31.20
2018-07-03T14:44:05.106Z,31.10
2018-07-03T14:46:32.749Z,31.10
2018-07-03T14:49:00.466Z,30.80
2018-07-03T14:51:28.173Z,30.80
2018-07-03T14:53:55.787Z,30.80
2018-07-03T14:56:23.675Z,30.90
2018-07-03T14:58:51.312Z,30.90
2018-07-03T15:01:18.958Z,30.80
2018-07-03T15:03:46.564Z,30.70
2018-07-03T15:06:14.245Z,30.60
2018-07-03T15:08:41.854Z,30.50
2018-07-03T15:11:09.496Z,30.60
2018-07-03T15:13:37.121Z,30.60
2018-07-03T15:16:04.889Z,30.50
2018-07-03T15:18:38.082Z,30.50
2018-07-03T15:21:05.886Z,30.50
2018-07-03T15:23:33.496Z,30.40
2018-07-03T15:26:01.322Z,30.40
2018-07-03T15:28:28.928Z,30.40
2018-07-03T15:30:56.561Z,30.40
2018-07-03T15:33:24.222Z,30.30
2018-07-03T15:35:51.905Z,30.40
2018-07-03T15:38:19.605Z,30.40
2018-07-03T15:40:47.267Z,30.50
2018-07-03T15:43:14.937Z,30.50
2018-07-03T15:45:42.557Z,30.50
2018-07-03T15:50:37.789Z,30.40
2018-07-03T15:53:05.416Z,30.40
2018-07-03T15:55:33.068Z,30.30
2018-07-03T15:58:00.722Z,30.30
2018-07-03T16:00:28.488Z,30.20
2018-07-03T16:03:07.396Z,30.20
2018-07-03T16:05:46.406Z,30.10
2018-07-03T16:08:25.331Z,30.10
2018-07-03T16:10:52.955Z,30.10
2018-07-03T16:13:20.653Z,30.10
2018-07-03T16:15:48.287Z,30.10
2018-07-03T16:18:15.953Z,30.10
2018-07-03T16:20:43.609Z,30.10
2018-07-03T16:23:11.263Z,30.10
2018-07-03T16:25:38.943Z,30.10
2018-07-03T16:28:06.678Z,30.10
2018-07-03T16:30:34.320Z,30.00
2018-07-03T16:33:01.988Z,30.00
2018-07-03T16:35:29.628Z,30.00
2018-07-03T16:37:57.331Z,30.00
2018-07-03T16:40:24.977Z,30.00
2018-07-03T16:42:52.638Z,30.00
2018-07-03T16:45:20.289Z,30.00
2018-07-03T16:47:48.063Z,30.00
2018-07-03T16:50:15.719Z,29.90
2018-07-03T16:52:43.470Z,29.90
2018-07-03T16:55:11.351Z,29.80
2018-07-03T16:57:39.063Z,29.70
2018-07-03T17:00:06.782Z,29.70
2018-07-03T17:02:34.513Z,29.60
2018-07-03T17:05:02.297Z,29.60
2018-07-03T17:07:30.028Z,29.60
2018-07-03T17:09:57.685Z,29.50
2018-07-03T17:12:25.399Z,29.50
2018-07-03T17:14:53.047Z,29.50
2018-07-03T17:17:20.699Z,29.40
2018-07-03T17:19:48.314Z,29.40
2018-07-03T17:22:16.049Z,29.40
2018-07-03T17:24:43.691Z,29.30
2018-07-03T17:27:12.181Z,29.30
2018-07-03T17:29:39.831Z,29.20
2018-07-03T17:32:07.504Z,29.20
2018-07-03T17:34:35.205Z,29.10
2018-07-03T17:37:02.896Z,29.10
2018-07-03T17:39:41.748Z,29.10
2018-07-03T17:42:20.725Z,29.10
2018-07-03T17:46:04.436Z,29.10
2018-07-03T17:48:32.281Z,29.00
2018-07-03T17:50:59.977Z,29.00
2018-07-03T17:53:27.652Z,28.90
2018-07-03T17:55:55.811Z,28.80
2018-07-03T17:58:23.772Z,28.80
2018-07-03T18:00:51.201Z,28.70
2018-07-03T18:03:18.844Z,28.60
2018-07-03T18:05:46.597Z,28.50
2018-07-03T18:08:14.342Z,28.50
2018-07-03T18:10:42.255Z,28.40
2018-07-03T18:13:09.917Z,28.40
2018-07-03T18:15:37.681Z,28.30
2018-07-03T18:18:05.434Z,28.20
2018-07-03T18:20:33.089Z,28.10
2018-07-03T18:23:00.753Z,28.10
2018-07-03T18:25:28.461Z,28.00
2018-07-03T18:27:56.117Z,27.90
2018-07-03T18:30:23.737Z,27.80
2018-07-03T18:32:51.401Z,27.70
2018-07-03T18:35:19.103Z,27.60
2018-07-03T18:37:46.758Z,27.60
2018-07-03T18:40:14.549Z,27.50
2018-07-03T18:42:42.209Z,27.30
2018-07-03T18:45:09.860Z,27.30
2018-07-03T18:47:37.497Z,27.20
2018-07-03T18:50:05.441Z,27.20
2018-07-03T18:52:33.117Z,27.00
2018-07-03T18:55:00.801Z,26.90
2018-07-03T18:57:28.509Z,26.80
2018-07-03T18:59:56.642Z,26.70
2018-07-03T19:02:30.824Z,26.60
2018-07-03T19:04:58.482Z,26.60
2018-07-03T19:07:26.089Z,26.60
2018-07-03T19:09:53.733Z,26.50
2018-07-03T19:12:21.418Z,26.40
2018-07-03T19:14:49.101Z,26.20
2018-07-03T19:17:16.810Z,26.20
2018-07-03T19:19:44.507Z,26.10
2018-07-03T19:22:12.137Z,26.00
2018-07-03T19:24:52.924Z,25.90
2018-07-03T19:27:20.572Z,25.80
2018-07-03T19:29:48.320Z,25.60
2018-07-03T19:32:15.984Z,25.60
2018-07-03T19:34:43.681Z,25.50
2018-07-03T19:37:11.585Z,25.40
2018-07-03T19:39:39.277Z,25.30
2018-07-03T19:42:06.969Z,25.20
2018-07-03T19:44:34.566Z,25.10
2018-07-03T19:47:02.212Z,25.00
2018-07-03T19:49:29.895Z,24.90
2018-07-03T19:51:57.537Z,24.80
2018-07-03T19:54:25.207Z,24.60
2018-07-03T19:56:52.829Z,24.50
2018-07-03T19:59:20.502Z,24.40
2018-07-03T20:01:48.157Z,24.20
2018-07-03T20:04:15.853Z,24.10
2018-07-03T20:06:43.528Z,24.00
2018-07-03T20:09:12.224Z,23.80
2018-07-03T20:11:39.901Z,23.70
2018-07-03T20:14:07.845Z,23.60
2018-07-03T20:16:35.493Z,23.50
2018-07-03T20:19:03.222Z,23.40
2018-07-03T20:21:30.871Z,23.40
2018-07-03T20:24:11.710Z,23.30
2018-07-03T20:26:39.711Z,23.20
2018-07-03T20:29:07.376Z,23.10
2018-07-03T20:31:34.998Z,23.10
2018-07-03T20:34:02.696Z,23.00
2018-07-03T20:36:30.368Z,22.90
2018-07-03T20:38:58.024Z,23.00
2018-07-03T20:41:25.666Z,23.00
2018-07-03T20:43:53.789Z,22.90
2018-07-03T20:46:21.416Z,22.90
2018-07-03T20:48:49.044Z,22.80
2018-07-03T20:51:16.699Z,22.70
2018-07-03T20:53:44.436Z,22.70
2018-07-03T20:56:12.103Z,22.60
2018-07-03T20:58:39.805Z,22.60
2018-07-03T21:01:07.458Z,22.50
2018-07-03T21:03:35.131Z,22.50
2018-07-03T21:06:02.922Z,22.50
2018-07-03T21:08:30.496Z,22.50
2018-07-03T21:10:58.172Z,22.50
2018-07-03T21:13:25.817Z,22.40
2018-07-03T21:15:53.462Z,22.40
2018-07-03T21:18:21.125Z,22.40
2018-07-03T21:20:48.825Z,22.40
2018-07-03T21:23:17.005Z,22.40
2018-07-03T21:25:44.657Z,22.50
2018-07-03T21:28:12.268Z,22.50
2018-07-03T21:30:39.905Z,22.50
2018-07-03T21:33:07.561Z,22.50
2018-07-03T21:35:35.166Z,22.50
2018-07-03T21:38:02.831Z,22.50
2018-07-03T21:40:30.515Z,22.50
2018-07-03T21:42:58.161Z,22.40
2018-07-03T21:45:25.759Z,22.40
2018-07-03T21:47:53.420Z,22.40
2018-07-03T21:50:21.027Z,22.30
2018-07-03T21:52:49.083Z,22.30
2018-07-03T21:55:16.740Z,22.30
2018-07-03T21:57:44.337Z,22.30
2018-07-03T22:00:11.973Z,22.30
2018-07-03T22:02:39.576Z,22.30
2018-07-03T22:05:07.205Z,22.20
2018-07-03T22:07:34.793Z,22.20
2018-07-03T22:10:02.729Z,22.20
2018-07-03T22:12:30.462Z,22.20
2018-07-03T22:14:58.083Z,22.20
2018-07-03T22:17:26.233Z,22.30
2018-07-03T22:19:53.874Z,22.20
2018-07-03T22:22:21.516Z,22.30
2018-07-03T22:24:49.141Z,22.20
2018-07-03T22:27:16.812Z,22.20
2018-07-03T22:29:44.424Z,22.20
2018-07-03T22:32:12.028Z,22.10
2018-07-03T22:34:39.776Z,22.10
2018-07-03T22:37:07.446Z,22.00
2018-07-03T22:39:35.228Z,21.90
2018-07-03T22:42:02.832Z,21.90
2018-07-03T22:44:30.428Z,21.80
2018-07-03T22:46:58.074Z,21.80
2018-07-03T22:49:25.700Z,21.80
2018-07-03T22:51:53.328Z,21.70
2018-07-03T22:54:20.948Z,21.70
2018-07-03T22:56:48.576Z,21.70
2018-07-03T23:01:43.681Z,21.60
2018-07-03T23:04:11.300Z,21.50
2018-07-03T23:06:38.928Z,21.40
2018-07-03T23:09:07.242Z,21.30
2018-07-03T23:11:34.903Z,21.20
2018-07-03T23:14:02.568Z,21.10
2018-07-03T23:16:30.510Z,21.00
2018-07-03T23:18:58.131Z,20.90
2018-07-03T23:21:25.809Z,20.90
2018-07-03T23:23:53.424Z,20.80
2018-07-03T23:26:21.045Z,20.80
2018-07-03T23:28:48.651Z,20.90
2018-07-03T23:31:16.330Z,20.90
2018-07-03T23:33:43.895Z,20.80
2018-07-03T23:38:39.045Z,20.80
2018-07-03T23:41:06.737Z,20.80
2018-07-03T23:43:34.337Z,20.80
2018-07-03T23:46:00.846Z,20.80
2018-07-03T23:48:39.847Z,20.90
2018-07-03T23:51:19.697Z,20.90
2018-07-03T23:53:58.802Z,20.80
2018-07-03T23:56:38.887Z,20.80
2018-07-03T23:59:17.968Z,20.80
